Time,TemperatureF,DewpointF,PressureIn,WindDirection,WindDirectionDegrees,WindSpeedMPH,WindSpeedGustMPH,Humidity,HourlyPrecipIn,Conditions,Clouds,dailyrainin,SolarRadiationWatts/m^2,SoftwareType,DateUTC
2013-07-21 00:01:00,69.0,58.0,29.80,West,260,1.0,3.0,69,0.00,,,0.00,0.000000,,2013-07-21 07:01:00,
2013-07-21 00:11:00,69.0,58.0,29.80,West,260,1.0,3.0,69,0.00,,,0.00,0.000000,,2013-07-21 07:11:00,
2013-07-21 00:22:00,68.0,57.0,29.80,West,260,0.0,2.0,69,0.00,,,0.00,0.000000,,2013-07-21 07:22:00,
2013-07-21 00:32:00,68.0,57.0,29.80,West,260,0.0,2.0,69,0.00,,,0.00,0.000000,,2013-07-21 07:32:00,
2013-07-21 00:43:00,68.0,57.0,29.80,West,260,0.0,2.0,69,0.00,,,0.00,0.000000,,2013-07-21 07:43:00,
2013-07-21 00:53:00,68.0,57.0,29.78,West,260,0.0,2.0,69,0.00,,,0.00,0.000000,,2013-07-21 07:53:00,
2013-07-21 01:01:00,68.0,57.0,29.78,West,260,0.0,2.0,69,0.00,,,0.00,0.000000,,2013-07-21 08:01:00,
2013-07-21 01:11:00,68.0,57.0,29.78,West,260,0.0,2.0,69,0.00,,,0.00,0.000000,,2013-07-21 08:11:00,
2013-07-21 01:22:00,68.0,57.0,29.79,West,260,0.0,3.0,69,0.00,,,0.00,0.000000,,2013-07-21 08:22:00,
2013-07-21 01:32:00,68.0,57.0,29.79,West,260,0.0,3.0,69,0.00,,,0.00,0.000000,,2013-07-21 08:32:00,
2013-07-21 01:43:00,68.0,57.0,29.79,West,260,0.0,3.0,69,0.00,,,0.00,0.000000,,2013-07-21 08:43:00,
2013-07-21 01:52:00,68.0,58.0,29.78,West,260,0.0,2.0,70,0.00,,,0.00,0.000000,,2013-07-21 08:52:00,
2013-07-21 02:02:00,68.0,58.0,29.78,West,260,0.0,2.0,70,0.00,,,0.00,0.000000,,2013-07-21 09:02:00,
2013-07-21 02:12:00,68.0,58.0,29.78,West,260,0.0,2.0,70,0.00,,,0.00,0.000000,,2013-07-21 09:12:00,
2013-07-21 02:22:00,68.0,58.0,29.79,East,96,1.0,5.0,70,0.00,,,0.00,0.000000,,2013-07-21 09:22:00,
2013-07-21 02:32:00,68.0,58.0,29.79,East,96,1.0,5.0,70,0.00,,,0.00,0.000000,,2013-07-21 09:32:00,
2013-07-21 02:42:00,68.0,58.0,29.79,East,96,1.0,5.0,70,0.00,,,0.00,0.000000,,2013-07-21 09:42:00,
2013-07-21 02:52:00,68.0,58.0,29.79,ENE,58,0.0,2.0,71,0.00,,,0.00,0.000000,,2013-07-21 09:52:00,
2013-07-21 03:01:00,68.0,58.0,29.79,ENE,58,0.0,2.0,71,0.00,,,0.00,0.000000,,2013-07-21 10:01:00,
2013-07-21 03:11:00,68.0,58.0,29.79,ENE,58,0.0,2.0,71,0.00,,,0.00,0.000000,,2013-07-21 10:11:00,
2013-07-21 03:22:00,68.0,58.0,29.78,ENE,58,0.0,2.0,71,0.00,,,0.00,0.000000,,2013-07-21 10:22:00,
2013-07-21 03:32:00,68.0,58.0,29.78,ENE,58,0.0,2.0,71,0.00,,,0.00,0.000000,,2013-07-21 10:32:00,
2013-07-21 03:43:00,68.0,58.0,29.78,ENE,58,0.0,2.0,71,0.00,,,0.00,0.000000,,2013-07-21 10:43:00,
2013-07-21 03:52:00,68.0,58.0,29.78,ENE,58,1.0,2.0,71,0.00,,,0.00,0.000000,,2013-07-21 10:52:00,
2013-07-21 04:02:00,68.0,58.0,29.78,ENE,58,1.0,2.0,71,0.00,,,0.00,0.000000,,2013-07-21 11:02:00,
2013-07-21 04:11:00,68.0,58.0,29.78,ENE,58,1.0,2.0,71,0.00,,,0.00,0.000000,,2013-07-21 11:11:00,
2013-07-21 04:22:00,68.0,58.0,29.78,NE,41,1.0,2.0,71,0.00,,,0.00,0.000000,,2013-07-21 11:22:00,
2013-07-21 04:32:00,68.0,58.0,29.78,NE,41,1.0,2.0,71,0.00,,,0.00,0.000000,,2013-07-21 11:32:00,
2013-07-21 04:43:00,68.0,58.0,29.78,NE,41,1.0,2.0,71,0.00,,,0.00,0.000000,,2013-07-21 11:43:00,
2013-07-21 04:52:00,67.0,58.0,29.78,NE,41,0.0,3.0,72,0.00,,,0.00,0.000000,,2013-07-21 11:52:00,
2013-07-21 05:01:00,67.0,58.0,29.78,NE,41,0.0,3.0,72,0.00,,,0.00,0.000000,,2013-07-21 12:01:00,
2013-07-21 05:11:00,67.0,58.0,29.78,NE,41,0.0,3.0,72,0.00,,,0.00,0.000000,,2013-07-21 12:11:00,
2013-07-21 05:22:00,67.0,58.0,29.78,NE,41,0.0,0.0,72,0.00,,,0.00,0.000000,,2013-07-21 12:22:00,
2013-07-21 05:32:00,67.0,58.0,29.78,NE,41,0.0,0.0,72,0.00,,,0.00,0.000000,,2013-07-21 12:32:00,
2013-07-21 05:43:00,67.0,58.0,29.78,NE,41,0.0,0.0,72,0.00,,,0.00,0.000000,,2013-07-21 12:43:00,
2013-07-21 05:53:00,67.0,58.0,29.78,NE,41,0.0,0.0,73,0.00,,,0.00,0.000000,,2013-07-21 12:53:00,
2013-07-21 06:01:00,67.0,58.0,29.78,NE,41,0.0,0.0,73,0.00,,,0.00,0.000000,,2013-07-21 13:01:00,
2013-07-21 06:11:00,67.0,58.0,29.78,NE,41,0.0,0.0,73,0.00,,,0.00,0.000000,,2013-07-21 13:11:00,
2013-07-21 06:22:00,68.0,59.0,29.76,NE,41,1.0,3.0,73,0.00,,,0.00,0.000000,,2013-07-21 13:22:00,
2013-07-21 06:32:00,68.0,59.0,29.76,NE,41,1.0,3.0,73,0.00,,,0.00,0.000000,,2013-07-21 13:32:00,
2013-07-21 06:43:00,68.0,59.0,29.76,NE,41,1.0,3.0,73,0.00,,,0.00,0.000000,,2013-07-21 13:43:00,
2013-07-21 06:52:00,68.0,59.0,29.76,SW,216,3.0,6.0,72,0.00,,,0.00,7.000000,,2013-07-21 13:52:00,
2013-07-21 07:01:00,68.0,59.0,29.76,SW,216,3.0,6.0,72,0.00,,,0.00,7.000000,,2013-07-21 14:01:00,
2013-07-21 07:12:00,68.0,59.0,29.76,SW,216,3.0,6.0,72,0.00,,,0.00,7.000000,,2013-07-21 14:12:00,
2013-07-21 07:32:00,68.0,58.0,29.77,SW,216,0.0,3.0,71,0.00,,,0.00,97.000000,,2013-07-21 14:32:00,
2013-07-21 07:43:00,68.0,58.0,29.77,SW,216,0.0,3.0,71,0.00,,,0.00,97.000000,,2013-07-21 14:43:00,
2013-07-21 07:53:00,69.0,59.0,29.78,SW,216,0.0,2.0,70,0.00,,,0.00,187.000000,,2013-07-21 14:53:00,
2013-07-21 08:02:00,69.0,59.0,29.78,SW,216,0.0,2.0,70,0.00,,,0.00,187.000000,,2013-07-21 15:02:00,
2013-07-21 08:11:00,69.0,59.0,29.78,SW,216,0.0,2.0,70,0.00,,,0.00,187.000000,,2013-07-21 15:11:00,
2013-07-21 08:22:00,71.0,59.0,29.77,ENE,66,1.0,2.0,66,0.00,,,0.00,102.000000,,2013-07-21 15:22:00,
2013-07-21 08:32:00,71.0,59.0,29.77,ENE,66,1.0,2.0,66,0.00,,,0.00,102.000000,,2013-07-21 15:32:00,
2013-07-21 08:43:00,71.0,59.0,29.77,ENE,66,1.0,2.0,66,0.00,,,0.00,102.000000,,2013-07-21 15:43:00,
2013-07-21 08:53:00,72.0,59.0,29.78,ENE,66,0.0,1.0,64,0.00,,,0.00,204.000000,,2013-07-21 15:53:00,
2013-07-21 09:01:00,72.0,59.0,29.78,ENE,66,0.0,1.0,64,0.00,,,0.00,204.000000,,2013-07-21 16:01:00,
2013-07-21 09:11:00,72.0,59.0,29.78,ENE,66,0.0,1.0,64,0.00,,,0.00,204.000000,,2013-07-21 16:11:00,
2013-07-21 09:22:00,77.0,61.0,29.79,North,360,2.0,5.0,57,0.00,,,0.00,691.000000,,2013-07-21 16:22:00,
2013-07-21 09:32:00,77.0,61.0,29.79,North,360,2.0,5.0,57,0.00,,,0.00,691.000000,,2013-07-21 16:32:00,
2013-07-21 09:43:00,77.0,61.0,29.79,North,360,2.0,5.0,57,0.00,,,0.00,691.000000,,2013-07-21 16:43:00,
2013-07-21 09:52:00,79.0,60.0,29.80,NNW,339,0.0,5.0,52,0.00,,,0.00,271.000000,,2013-07-21 16:52:00,
2013-07-21 10:01:00,79.0,60.0,29.80,NNW,339,0.0,5.0,52,0.00,,,0.00,271.000000,,2013-07-21 17:01:00,
2013-07-21 10:11:00,79.0,60.0,29.80,NNW,339,0.0,5.0,52,0.00,,,0.00,271.000000,,2013-07-21 17:11:00,
2013-07-21 10:33:00,78.0,61.0,29.81,NE,42,0.0,3.0,55,0.00,,,0.00,282.000000,,2013-07-21 17:33:00,
2013-07-21 10:43:00,78.0,61.0,29.81,NE,42,0.0,3.0,55,0.00,,,0.00,282.000000,,2013-07-21 17:43:00,
2013-07-21 10:53:00,78.0,59.0,29.83,NNE,30,1.0,6.0,53,0.00,,,0.00,215.000000,,2013-07-21 17:53:00,
2013-07-21 11:01:00,78.0,59.0,29.83,NNE,30,1.0,6.0,53,0.00,,,0.00,215.000000,,2013-07-21 18:01:00,
2013-07-21 11:11:00,78.0,59.0,29.83,NNE,30,1.0,6.0,53,0.00,,,0.00,215.000000,,2013-07-21 18:11:00,
2013-07-21 11:32:00,76.0,59.0,29.83,NE,47,3.0,6.0,56,0.00,,,0.00,331.000000,,2013-07-21 18:32:00,
2013-07-21 11:43:00,76.0,59.0,29.83,NE,47,3.0,6.0,56,0.00,,,0.00,331.000000,,2013-07-21 18:43:00,
2013-07-21 11:52:00,77.0,59.0,29.83,East,79,2.0,5.0,54,0.00,,,0.00,503.000000,,2013-07-21 18:52:00,
2013-07-21 12:01:00,77.0,59.0,29.83,East,79,2.0,5.0,54,0.00,,,0.00,503.000000,,2013-07-21 19:01:00,
2013-07-21 12:11:00,77.0,59.0,29.83,East,79,2.0,5.0,54,0.00,,,0.00,503.000000,,2013-07-21 19:11:00,
2013-07-21 12:22:00,80.0,59.0,29.83,North,354,1.0,3.0,49,0.00,,,0.00,421.000000,,2013-07-21 19:22:00,
2013-07-21 12:32:00,80.0,59.0,29.83,North,354,1.0,3.0,49,0.00,,,0.00,421.000000,,2013-07-21 19:32:00,
2013-07-21 12:42:00,80.0,59.0,29.83,North,354,1.0,3.0,49,0.00,,,0.00,421.000000,,2013-07-21 19:42:00,
2013-07-21 12:52:00,79.0,60.0,29.83,NE,34,1.0,7.0,52,0.00,,,0.00,473.000000,,2013-07-21 19:52:00,
2013-07-21 13:01:00,79.0,60.0,29.83,NE,34,1.0,7.0,52,0.00,,,0.00,473.000000,,2013-07-21 20:01:00,
2013-07-21 13:11:00,79.0,60.0,29.83,NE,34,1.0,7.0,52,0.00,,,0.00,473.000000,,2013-07-21 20:11:00,
2013-07-21 13:22:00,82.0,60.0,29.83,North,10,3.0,4.0,47,0.00,,,0.00,735.000000,,2013-07-21 20:22:00,
2013-07-21 13:32:00,82.0,60.0,29.83,North,10,3.0,4.0,47,0.00,,,0.00,735.000000,,2013-07-21 20:32:00,
2013-07-21 13:43:00,82.0,60.0,29.83,North,10,3.0,4.0,47,0.00,,,0.00,735.000000,,2013-07-21 20:43:00,
2013-07-21 13:52:00,82.0,60.0,29.83,North,10,3.0,4.0,47,0.00,,,0.00,735.000000,,2013-07-21 20:52:00,
2013-07-21 14:01:00,82.0,60.0,29.83,North,10,3.0,4.0,47,0.00,,,0.00,735.000000,,2013-07-21 21:01:00,
2013-07-21 14:22:00,80.0,59.0,29.83,NNE,24,2.0,7.0,49,0.00,,,0.00,187.000000,,2013-07-21 21:22:00,
2013-07-21 14:32:00,80.0,59.0,29.83,NNE,24,2.0,7.0,49,0.00,,,0.00,187.000000,,2013-07-21 21:32:00,
2013-07-21 14:43:00,80.0,59.0,29.83,NNE,24,2.0,7.0,49,0.00,,,0.00,187.000000,,2013-07-21 21:43:00,
2013-07-21 14:52:00,79.0,59.0,29.83,North,1,1.0,5.0,50,0.00,,,0.00,236.000000,,2013-07-21 21:52:00,
2013-07-21 15:01:00,79.0,59.0,29.83,North,1,1.0,5.0,50,0.00,,,0.00,236.000000,,2013-07-21 22:01:00,
2013-07-21 15:11:00,79.0,59.0,29.83,North,1,1.0,5.0,50,0.00,,,0.00,236.000000,,2013-07-21 22:11:00,
2013-07-21 15:22:00,78.0,59.0,29.83,NNE,18,0.0,5.0,53,0.00,,,0.00,167.000000,,2013-07-21 22:22:00,
2013-07-21 15:32:00,78.0,59.0,29.83,NNE,18,0.0,5.0,53,0.00,,,0.00,167.000000,,2013-07-21 22:32:00,
2013-07-21 15:43:00,78.0,59.0,29.83,NNE,18,0.0,5.0,53,0.00,,,0.00,167.000000,,2013-07-21 22:43:00,
2013-07-21 15:52:00,79.0,60.0,29.83,NNW,330,2.0,3.0,53,0.00,,,0.00,429.000000,,2013-07-21 22:52:00,
2013-07-21 16:01:00,79.0,60.0,29.83,NNW,330,2.0,3.0,53,0.00,,,0.00,429.000000,,2013-07-21 23:01:00,
2013-07-21 16:11:00,79.0,60.0,29.83,NNW,330,2.0,3.0,53,0.00,,,0.00,429.000000,,2013-07-21 23:11:00,
2013-07-21 16:32:00,78.0,59.0,29.83,NE,34,1.0,7.0,53,0.00,,,0.00,202.000000,,2013-07-21 23:32:00,
2013-07-21 16:43:00,78.0,59.0,29.83,NE,34,1.0,7.0,53,0.00,,,0.00,202.000000,,2013-07-21 23:43:00,
2013-07-21 16:53:00,78.0,60.0,29.83,NE,44,0.0,5.0,54,0.00,,,0.00,125.000000,,2013-07-21 23:53:00,
2013-07-21 17:01:00,78.0,60.0,29.83,NE,44,0.0,5.0,54,0.00,,,0.00,125.000000,,2013-07-22 00:01:00,
2013-07-21 17:11:00,78.0,60.0,29.83,NE,44,0.0,5.0,54,0.00,,,0.00,125.000000,,2013-07-22 00:11:00,
2013-07-21 17:22:00,78.0,61.0,29.83,NE,48,1.0,3.0,55,0.00,,,0.00,109.000000,,2013-07-22 00:22:00,
2013-07-21 17:32:00,78.0,61.0,29.83,NE,48,1.0,3.0,55,0.00,,,0.00,109.000000,,2013-07-22 00:32:00,
2013-07-21 17:42:00,78.0,61.0,29.83,NE,48,1.0,3.0,55,0.00,,,0.00,109.000000,,2013-07-22 00:42:00,
2013-07-21 17:53:00,75.0,58.0,29.82,SE,141,2.0,5.0,56,0.00,,,0.00,141.000000,,2013-07-22 00:53:00,
2013-07-21 18:01:00,75.0,58.0,29.82,SE,141,2.0,5.0,56,0.00,,,0.00,141.000000,,2013-07-22 01:01:00,
2013-07-21 18:11:00,75.0,58.0,29.82,SE,141,2.0,5.0,56,0.00,,,0.00,141.000000,,2013-07-22 01:11:00,
2013-07-21 18:21:00,74.0,58.0,29.83,SSE,154,2.0,6.0,58,0.00,,,0.00,114.000000,,2013-07-22 01:21:00,
2013-07-21 18:32:00,74.0,58.0,29.83,SSE,154,2.0,6.0,58,0.00,,,0.00,114.000000,,2013-07-22 01:32:00,
2013-07-21 18:42:00,74.0,58.0,29.83,SSE,154,2.0,6.0,58,0.00,,,0.00,114.000000,,2013-07-22 01:42:00,
2013-07-21 18:52:00,75.0,58.0,29.84,South,179,0.0,4.0,56,0.00,,,0.00,67.000000,,2013-07-22 01:52:00,
2013-07-21 19:01:00,75.0,58.0,29.84,South,179,0.0,4.0,56,0.00,,,0.00,67.000000,,2013-07-22 02:01:00,
2013-07-21 19:11:00,75.0,58.0,29.84,South,179,0.0,4.0,56,0.00,,,0.00,67.000000,,2013-07-22 02:11:00,
2013-07-21 19:22:00,73.0,58.0,29.85,SSE,158,1.0,5.0,59,0.00,,,0.00,39.000000,,2013-07-22 02:22:00,
2013-07-21 19:32:00,73.0,58.0,29.85,SSE,158,1.0,5.0,59,0.00,,,0.00,39.000000,,2013-07-22 02:32:00,
2013-07-21 19:43:00,73.0,58.0,29.85,SSE,158,1.0,5.0,59,0.00,,,0.00,39.000000,,2013-07-22 02:43:00,
2013-07-21 19:52:00,72.0,57.0,29.85,SSE,158,1.0,5.0,60,0.00,,,0.00,12.000000,,2013-07-22 02:52:00,
2013-07-21 20:01:00,72.0,57.0,29.85,SSE,158,1.0,5.0,60,0.00,,,0.00,12.000000,,2013-07-22 03:01:00,
2013-07-21 20:11:00,72.0,57.0,29.85,SSE,158,1.0,5.0,60,0.00,,,0.00,12.000000,,2013-07-22 03:11:00,
2013-07-21 20:22:00,72.0,57.0,29.85,ENE,72,2.0,3.0,60,0.00,,,0.00,0.000000,,2013-07-22 03:22:00,
2013-07-21 20:32:00,72.0,57.0,29.85,ENE,72,2.0,3.0,60,0.00,,,0.00,0.000000,,2013-07-22 03:32:00,
2013-07-21 20:33:00,71.0,54.0,29.86,ESE,107,2.0,3.0,56,0.00,,,0.00,0.000000,,2013-07-22 03:33:00,
2013-07-21 20:43:00,72.0,57.0,29.85,ENE,72,2.0,3.0,60,0.00,,,0.00,0.000000,,2013-07-22 03:43:00,
2013-07-21 20:53:00,71.0,54.0,29.86,ESE,107,2.0,3.0,56,0.00,,,0.00,0.000000,,2013-07-22 03:53:00,
2013-07-21 21:01:00,71.0,54.0,29.86,ESE,107,2.0,3.0,56,0.00,,,0.00,0.000000,,2013-07-22 04:01:00,
2013-07-21 21:12:00,71.0,54.0,29.86,ESE,107,2.0,3.0,56,0.00,,,0.00,0.000000,,2013-07-22 04:12:00,
2013-07-21 21:22:00,71.0,54.0,29.86,ESE,107,2.0,3.0,56,0.00,,,0.00,0.000000,,2013-07-22 04:22:00,
2013-07-21 22:01:00,71.0,53.0,29.87,ESE,106,0.0,0.0,53,0.00,,,0.00,0.000000,,2013-07-22 05:01:00,
2013-07-21 22:11:00,71.0,53.0,29.87,ESE,106,0.0,0.0,53,0.00,,,0.00,0.000000,,2013-07-22 05:11:00,
2013-07-21 22:22:00,71.0,54.0,29.88,ESE,107,0.0,2.0,56,0.00,,,0.00,0.000000,,2013-07-22 05:22:00,
2013-07-21 22:32:00,71.0,54.0,29.88,ESE,107,0.0,2.0,56,0.00,,,0.00,0.000000,,2013-07-22 05:32:00,
2013-07-21 22:43:00,71.0,54.0,29.88,ESE,107,0.0,2.0,56,0.00,,,0.00,0.000000,,2013-07-22 05:43:00,
2013-07-21 22:52:00,71.0,56.0,29.88,ESE,107,0.0,2.0,60,0.00,,,0.00,0.000000,,2013-07-22 05:52:00,
2013-07-21 23:01:00,71.0,56.0,29.88,ESE,107,0.0,2.0,60,0.00,,,0.00,0.000000,,2013-07-22 06:01:00,
2013-07-21 23:11:00,71.0,56.0,29.88,ESE,107,0.0,2.0,60,0.00,,,0.00,0.000000,,2013-07-22 06:11:00,
2013-07-21 23:32:00,71.0,56.0,29.88,ESE,107,0.0,3.0,59,0.00,,,0.00,0.000000,,2013-07-22 06:32:00,
2013-07-21 23:43:00,71.0,56.0,29.88,ESE,107,0.0,3.0,59,0.00,,,0.00,0.000000,,2013-07-22 06:43:00,
2013-07-21 23:52:00,71.0,56.0,29.88,ESE,107,0.0,0.0,59,0.00,,,0.00,0.000000,,2013-07-22 06:52:00,